Погода Крутобережныйна 2 недели

Ростовская область, Россия

21 мая-03 июня
  • 21мая
    Сегодня
    +11°
    +26°
    Небольшая облачность
    ВремяПогодаТемператураВлажностьДавлениеВетер, м/сВероятность осадков
    00:00Ясно и безоблачно+15°C67 %759 мм0.8 м/с2 %
    03:00Ясно и безоблачно+11°C76 %760 мм0.8 м/с2 %
    06:00Ясно и безоблачно+13°C72 %760 мм1.0 м/с2 %
    09:00Ясно и безоблачно+21°C45 %761 мм0.3 м/с2 %
    12:00Практически безоблачно+25°C31 %761 мм1.2 м/с2 %
    15:00Небольшая облачность+26°C27 %760 мм1.0 м/с2 %
    18:00Практически безоблачно+25°C30 %759 мм0.9 м/с2 %
    21:00Практически безоблачно+17°C44 %760 мм1.0 м/с2 %
  • 22мая
    Среда
    +11°
    +28°
    Ясно и безоблачно
    ВремяПогодаТемператураВлажностьДавлениеВетер, м/сВероятность осадков
    00:00Небольшая облачность+15°C55 %759 мм0.8 м/с2 %
    03:00Небольшая облачность+12°C66 %759 мм0.9 м/с2 %
    06:00Небольшая облачность+14°C61 %760 мм1.2 м/с2 %
    09:00Практически безоблачно+23°C34 %760 мм1.2 м/с2 %
    12:00Практически безоблачно+27°C23 %759 мм3.1 м/с2 %
    15:00Ясно и безоблачно+28°C21 %758 мм3.6 м/с2 %
    18:00Ясно и безоблачно+26°C24 %757 мм1.8 м/с2 %
    21:00Ясно и безоблачно+18°C44 %758 мм1.3 м/с2 %
  • 23мая
    Четверг
    +14°
    +28°
    Ясно и безоблачно
    ВремяПогодаТемператураВлажностьДавлениеВетер, м/сВероятность осадков
    00:00Ясно и безоблачно+15°C50 %757 мм1.5 м/с2 %
    03:00Ясно и безоблачно+13°C59 %757 мм1.0 м/с2 %
    06:00Ясно и безоблачно+14°C60 %758 мм1.1 м/с2 %
    09:00Ясно и безоблачно+23°C38 %758 мм1.3 м/с2 %
    12:00Ясно и безоблачно+27°C25 %758 мм3.3 м/с2 %
    15:00Ясно и безоблачно+28°C22 %757 мм4.0 м/с2 %
    18:00Ясно и безоблачно+26°C25 %757 мм3.7 м/с4 %
    21:00Ясно и безоблачно+19°C46 %758 мм4.2 м/с2 %
  • 24мая
    Пятница
    +11°
    +24°
    Ясно и безоблачно
    ВремяПогодаТемператураВлажностьДавлениеВетер, м/сВероятность осадков
    00:00Ясно и безоблачно+17°C56 %758 мм4.4 м/с2 %
    03:00Ясно и безоблачно+15°C75 %759 мм4.9 м/с2 %
    06:00Практически безоблачно+15°C53 %760 мм6.4 м/с2 %
    09:00Ясно и безоблачно+19°C41 %762 мм7.4 м/с2 %
    12:00Ясно и безоблачно+22°C34 %762 мм7.7 м/с2 %
    15:00Ясно и безоблачно+23°C29 %762 мм8.1 м/с2 %
    18:00Ясно и безоблачно+21°C21 %762 мм6.8 м/с2 %
    21:00Ясно и безоблачно+16°C26 %764 мм5.0 м/с2 %
  • 25мая
    Суббота
    +11°
    +22°
    Ясно и безоблачно
    ВремяПогодаТемператураВлажностьДавлениеВетер, м/сВероятность осадков
    00:00Ясно и безоблачно+14°C31 %765 мм5.3 м/с2 %
    03:00Ясно и безоблачно+11°C37 %765 мм5.0 м/с2 %
    06:00Ясно и безоблачно+11°C40 %766 мм5.0 м/с2 %
    09:00Ясно и безоблачно+17°C26 %766 мм6.8 м/с2 %
    12:00Ясно и безоблачно+20°C22 %766 мм7.3 м/с2 %
    15:00Ясно и безоблачно+22°C21 %765 мм7.8 м/с2 %
    18:00Облачно с прояснениями+22°C20 %764 мм5.8 м/с2 %
    21:00Облачно с прояснениями+17°C28 %764 мм4.0 м/с2 %
Мы используем cookies
Соглашаюсь